createdAt,value
2022-10-02T00:00:09.329Z,92.64
2022-10-02T00:03:21.579Z,92.79
2022-10-02T00:06:28.734Z,92.84
2022-10-02T00:09:42.863Z,92.41
2022-10-02T00:12:50.150Z,91.95
2022-10-02T00:15:54.407Z,92.31
2022-10-02T00:18:57.780Z,91.74
2022-10-02T00:22:50.902Z,91.45
2022-10-02T00:26:19.877Z,91.78
2022-10-02T00:29:24.459Z,92.32
2022-10-02T00:32:45.336Z,92.20
2022-10-02T00:36:01.716Z,91.98
2022-10-02T00:39:07.390Z,92.19
2022-10-02T00:42:37.977Z,92.54
2022-10-02T00:46:13.060Z,92.95
2022-10-02T00:49:18.995Z,93.46
2022-10-02T00:52:38.814Z,93.24
2022-10-02T00:56:01.120Z,93.20
2022-10-02T00:59:03.809Z,93.20
2022-10-02T01:02:44.661Z,92.64
2022-10-02T01:05:47.591Z,92.61
2022-10-02T01:08:52.238Z,92.30
2022-10-02T01:11:55.755Z,92.58
2022-10-02T01:14:58.413Z,92.63
2022-10-02T01:18:02.679Z,92.79
2022-10-02T01:21:14.555Z,92.68
2022-10-02T01:24:37.117Z,93.00
2022-10-02T01:27:40.362Z,92.90
2022-10-02T01:30:46.449Z,92.48
2022-10-02T01:33:49.946Z,92.18
2022-10-02T01:36:52.901Z,92.19
2022-10-02T01:40:02.115Z,91.74
2022-10-02T01:43:07.806Z,92.19
2022-10-02T01:46:13.455Z,92.10
2022-10-02T01:49:49.704Z,92.13
2022-10-02T01:53:02.880Z,92.21
2022-10-02T01:56:29.912Z,91.87
2022-10-02T01:59:54.449Z,92.13
2022-10-02T02:03:13.636Z,91.54
2022-10-02T02:07:02.918Z,91.90
2022-10-02T02:10:41.447Z,92.05
2022-10-02T02:14:03.032Z,92.75
2022-10-02T02:17:34.375Z,93.29
2022-10-02T02:20:44.834Z,92.97
2022-10-02T02:23:47.695Z,93.95
2022-10-02T02:26:53.498Z,93.91
2022-10-02T02:30:02.776Z,93.71
2022-10-02T02:33:10.799Z,94.93
2022-10-02T02:36:19.038Z,94.84
2022-10-02T02:39:47.722Z,95.04
2022-10-02T02:43:16.737Z,94.95
2022-10-02T02:46:25.519Z,94.76
2022-10-02T02:49:33.069Z,95.32
2022-10-02T02:53:11.241Z,95.34
2022-10-02T02:56:18.400Z,95.37
2022-10-02T02:59:27.083Z,95.12
2022-10-02T03:02:29.899Z,95.05
2022-10-02T03:05:35.066Z,95.07
2022-10-02T03:08:38.208Z,94.99
2022-10-02T03:11:53.223Z,94.63
2022-10-02T03:15:22.634Z,95.07
2022-10-02T03:18:32.199Z,94.42
2022-10-02T03:22:03.403Z,94.79
2022-10-02T03:25:09.131Z,94.74
2022-10-02T03:28:37.292Z,94.65
2022-10-02T03:31:44.482Z,94.46
2022-10-02T03:34:49.202Z,94.99
2022-10-02T03:37:57.282Z,95.14
2022-10-02T03:41:00.097Z,95.44
2022-10-02T03:44:02.749Z,95.65
2022-10-02T03:47:05.830Z,95.84
2022-10-02T03:50:09.381Z,95.35
2022-10-02T03:53:19.298Z,95.67
2022-10-02T03:56:41.051Z,96.21
2022-10-02T04:00:05.881Z,96.45
2022-10-02T04:03:21.708Z,96.66
2022-10-02T04:06:36.254Z,96.42
2022-10-02T04:09:56.309Z,96.18
2022-10-02T04:13:24.174Z,96.25
2022-10-02T04:16:35.835Z,96.36
2022-10-02T04:19:48.076Z,95.89
2022-10-02T04:22:57.031Z,95.75
2022-10-02T04:26:15.422Z,95.33
2022-10-02T04:29:28.652Z,95.04
2022-10-02T04:32:34.200Z,95.36
2022-10-02T04:35:48.998Z,94.99
2022-10-02T04:39:06.853Z,95.59
2022-10-02T04:42:38.792Z,95.45
2022-10-02T04:46:12.187Z,95.36
2022-10-02T04:49:45.795Z,95.01
2022-10-02T04:53:12.154Z,94.94
2022-10-02T04:56:55.843Z,94.86
2022-10-02T05:00:18.714Z,94.57
2022-10-02T05:03:43.893Z,94.45
2022-10-02T05:07:01.047Z,94.78
2022-10-02T05:10:40.515Z,94.54
2022-10-02T05:14:07.347Z,94.69
2022-10-02T05:17:42.320Z,94.42
2022-10-02T05:21:19.027Z,94.79
2022-10-02T05:24:40.438Z,94.26
2022-10-02T05:27:58.316Z,94.32
2022-10-02T05:31:35.993Z,94.03
2022-10-02T05:34:41.681Z,93.69
2022-10-02T05:37:53.606Z,94.06
2022-10-02T05:41:15.060Z,93.76
2022-10-02T05:44:26.961Z,93.66
2022-10-02T05:47:33.807Z,93.25
2022-10-02T05:50:38.201Z,93.08
2022-10-02T05:53:47.314Z,93.00
2022-10-02T05:57:03.306Z,92.09
2022-10-02T06:00:32.754Z,92.12
2022-10-02T06:03:49.242Z,91.61
2022-10-02T06:06:56.393Z,90.83
2022-10-02T06:10:16.331Z,91.69
2022-10-02T06:13:36.001Z,91.02
2022-10-02T06:16:57.943Z,90.98
2022-10-02T06:20:12.823Z,90.26
2022-10-02T06:23:22.565Z,89.81
2022-10-02T06:26:42.194Z,90.21
2022-10-02T06:29:57.932Z,89.55
2022-10-02T06:33:11.714Z,89.63
2022-10-02T06:36:21.488Z,89.68
2022-10-02T06:39:33.080Z,89.17
2022-10-02T06:42:49.589Z,83.60
2022-10-02T06:46:18.454Z,71.21
2022-10-02T06:49:37.550Z,62.55
2022-10-02T06:52:47.201Z,61.38
2022-10-02T06:56:02.130Z,57.11
2022-10-02T06:59:22.376Z,54.01
2022-10-02T07:02:25.167Z,51.19
2022-10-02T07:05:39.954Z,48.76
2022-10-02T07:09:19.353Z,45.47
2022-10-02T07:12:44.043Z,44.30
2022-10-02T07:16:11.024Z,47.24
2022-10-02T07:19:39.064Z,43.20
2022-10-02T07:22:55.302Z,42.26
2022-10-02T07:26:19.532Z,38.01
2022-10-02T07:29:41.175Z,38.26
2022-10-02T07:32:59.356Z,38.02
2022-10-02T07:36:23.656Z,33.17
2022-10-02T07:40:10.331Z,30.56
2022-10-02T07:43:27.959Z,28.09
2022-10-02T07:46:45.085Z,28.17
2022-10-02T07:49:56.319Z,27.43
2022-10-02T07:53:26.810Z,28.61
2022-10-02T07:56:30.723Z,27.31
2022-10-02T07:59:34.308Z,26.47
2022-10-02T08:02:43.228Z,27.49
2022-10-02T08:05:55.158Z,26.44
2022-10-02T08:09:07.229Z,26.82
2022-10-02T08:12:09.951Z,26.32
2022-10-02T08:15:17.849Z,26.10
2022-10-02T08:18:43.369Z,24.21
2022-10-02T08:21:50.219Z,25.09
2022-10-02T08:24:57.810Z,24.69
2022-10-02T08:28:04.041Z,23.38
2022-10-02T08:31:12.061Z,23.89
2022-10-02T08:34:21.183Z,21.76
2022-10-02T08:37:39.302Z,21.59
2022-10-02T08:40:57.129Z,20.93
2022-10-02T08:44:22.819Z,20.45
2022-10-02T08:47:54.637Z,19.77
2022-10-02T08:51:08.574Z,20.34
2022-10-02T08:54:33.005Z,21.31
2022-10-02T08:58:11.060Z,22.32
2022-10-02T09:01:46.739Z,20.87
2022-10-02T09:05:26.723Z,21.00
2022-10-02T09:09:07.657Z,20.01
2022-10-02T09:12:25.863Z,19.87
2022-10-02T09:15:42.938Z,19.58
2022-10-02T09:18:55.394Z,18.38
2022-10-02T09:22:23.105Z,17.24
2022-10-02T09:25:47.135Z,19.53
2022-10-02T09:29:24.037Z,18.88
2022-10-02T09:32:58.909Z,19.67
2022-10-02T09:36:32.541Z,20.97
2022-10-02T09:40:01.889Z,19.14
2022-10-02T09:43:14.476Z,17.99
2022-10-02T09:46:43.278Z,17.82
2022-10-02T09:50:30.350Z,17.79
2022-10-02T09:54:09.934Z,21.94
2022-10-02T09:57:31.910Z,21.72
2022-10-02T10:00:55.243Z,20.16
2022-10-02T10:05:01.287Z,18.10
2022-10-02T10:08:23.575Z,21.96
2022-10-02T10:12:03.227Z,22.10
2022-10-02T10:15:46.560Z,24.88
2022-10-02T10:19:25.750Z,24.78
2022-10-02T10:22:34.209Z,27.00
2022-10-02T10:25:50.417Z,27.30
2022-10-02T10:29:27.222Z,29.62
2022-10-02T10:32:48.287Z,29.43
2022-10-02T10:36:00.037Z,30.95
2022-10-02T10:39:40.297Z,32.56
2022-10-02T10:43:21.434Z,33.86
2022-10-02T10:46:37.312Z,31.75
2022-10-02T10:50:07.663Z,32.59
2022-10-02T10:53:40.612Z,32.73
2022-10-02T10:56:56.884Z,33.21
2022-10-02T11:00:20.400Z,33.56
2022-10-02T11:04:13.668Z,33.98
2022-10-02T11:07:26.638Z,34.58
2022-10-02T11:10:35.203Z,33.89
2022-10-02T11:13:48.986Z,35.20
2022-10-02T11:17:09.587Z,34.85
2022-10-02T11:20:35.067Z,34.85
2022-10-02T11:23:46.760Z,36.25
2022-10-02T11:27:19.050Z,35.91
2022-10-02T11:30:25.471Z,35.55
2022-10-02T11:34:02.070Z,35.85
2022-10-02T11:37:14.343Z,37.44
2022-10-02T11:40:32.371Z,35.82
2022-10-02T11:43:52.901Z,36.88
2022-10-02T11:47:14.495Z,35.88
2022-10-02T11:50:52.375Z,36.35
2022-10-02T11:54:27.440Z,37.65
2022-10-02T11:58:03.204Z,36.26
2022-10-02T12:01:05.986Z,36.89
2022-10-02T12:04:40.922Z,36.77
2022-10-02T12:08:11.475Z,38.08
2022-10-02T12:11:26.958Z,40.05
2022-10-02T12:14:55.688Z,38.91
2022-10-02T12:18:25.938Z,39.73
2022-10-02T12:21:46.813Z,39.94
2022-10-02T12:25:45.861Z,40.66
2022-10-02T12:29:02.858Z,38.88
2022-10-02T12:32:39.268Z,40.50
2022-10-02T12:35:57.197Z,38.79
2022-10-02T12:39:24.711Z,38.60
2022-10-02T12:42:49.349Z,38.65
2022-10-02T12:46:01.316Z,40.18
2022-10-02T12:49:22.060Z,39.74
2022-10-02T12:52:34.595Z,40.37
2022-10-02T12:56:01.538Z,39.89
2022-10-02T12:59:22.750Z,40.35
2022-10-02T13:03:06.842Z,38.27
2022-10-02T13:06:29.793Z,39.14
2022-10-02T13:09:39.068Z,38.31
2022-10-02T13:13:09.850Z,39.12
2022-10-02T13:16:34.366Z,39.12
2022-10-02T13:20:01.145Z,39.62
2022-10-02T13:23:16.383Z,40.12
2022-10-02T13:26:52.047Z,40.34
2022-10-02T13:29:58.618Z,40.18
2022-10-02T13:33:25.260Z,41.08
2022-10-02T13:36:35.270Z,40.77
2022-10-02T13:39:46.966Z,40.17
2022-10-02T13:42:49.591Z,40.50
2022-10-02T13:45:57.383Z,40.29
2022-10-02T13:49:28.996Z,39.53
2022-10-02T13:52:46.714Z,38.86
2022-10-02T13:56:02.839Z,38.45
2022-10-02T13:59:25.956Z,38.45
2022-10-02T14:02:39.728Z,38.54
2022-10-02T14:05:52.441Z,40.14
2022-10-02T14:09:10.693Z,42.96
2022-10-02T14:12:26.093Z,41.58
2022-10-02T14:15:55.654Z,42.00
2022-10-02T14:19:08.090Z,41.99
2022-10-02T14:22:55.449Z,42.53
2022-10-02T14:26:08.634Z,44.72
2022-10-02T14:29:35.143Z,43.28
2022-10-02T14:32:40.753Z,43.09
2022-10-02T14:36:15.771Z,43.27
2022-10-02T14:39:39.648Z,36.35
2022-10-02T14:43:02.289Z,38.23
2022-10-02T14:46:59.559Z,38.42
2022-10-02T14:50:23.450Z,42.31
2022-10-02T14:53:50.571Z,41.57
2022-10-02T14:57:08.197Z,41.51
2022-10-02T15:00:24.901Z,42.21
2022-10-02T15:03:43.695Z,43.48
2022-10-02T15:06:59.018Z,44.19
2022-10-02T15:10:07.917Z,42.07
2022-10-02T15:13:24.686Z,42.80
2022-10-02T15:16:59.480Z,44.11
2022-10-02T15:20:26.319Z,48.25
2022-10-02T15:23:45.669Z,48.63
2022-10-02T15:27:01.583Z,49.29
2022-10-02T15:30:17.918Z,49.99
2022-10-02T15:33:32.009Z,50.51
2022-10-02T15:36:34.668Z,50.19
2022-10-02T15:39:51.310Z,51.19
2022-10-02T15:42:59.277Z,51.69
2022-10-02T15:46:14.500Z,51.35
2022-10-02T15:49:34.049Z,52.98
2022-10-02T15:53:05.963Z,54.25
2022-10-02T15:56:17.636Z,55.68
2022-10-02T15:59:23.474Z,55.88
2022-10-02T16:02:51.416Z,57.80
2022-10-02T16:06:13.598Z,58.21
2022-10-02T16:09:43.587Z,59.99
2022-10-02T16:13:14.122Z,61.24
2022-10-02T16:16:48.592Z,61.38
2022-10-02T16:20:02.662Z,62.90
2022-10-02T16:23:30.343Z,62.98
2022-10-02T16:27:00.779Z,63.09
2022-10-02T16:30:17.746Z,62.82
2022-10-02T16:33:26.603Z,62.91
2022-10-02T16:36:38.270Z,64.86
2022-10-02T16:40:19.977Z,66.48
2022-10-02T16:43:41.471Z,66.13
2022-10-02T16:46:54.222Z,67.29
2022-10-02T16:50:13.080Z,69.48
2022-10-02T16:53:26.380Z,70.04
2022-10-02T16:56:40.705Z,70.03
2022-10-02T16:59:51.811Z,71.26
2022-10-02T17:03:28.981Z,71.89
2022-10-02T17:06:40.063Z,72.86
2022-10-02T17:09:47.882Z,73.48
2022-10-02T17:13:01.289Z,72.57
2022-10-02T17:16:21.099Z,73.26
2022-10-02T17:19:27.856Z,74.25
2022-10-02T17:22:42.868Z,71.81
2022-10-02T17:26:06.010Z,72.47
2022-10-02T17:29:25.555Z,72.58
2022-10-02T17:32:46.577Z,72.50
2022-10-02T17:35:54.914Z,72.35
2022-10-02T17:39:21.541Z,72.35
2022-10-02T17:42:47.302Z,72.98
2022-10-02T17:46:24.308Z,74.07
2022-10-02T17:49:33.091Z,74.25
2022-10-02T17:53:05.159Z,74.95
2022-10-02T17:56:29.567Z,75.77
2022-10-02T17:59:48.465Z,75.47
2022-10-02T18:02:51.160Z,75.44
2022-10-02T18:06:05.318Z,75.86
2022-10-02T18:09:17.211Z,75.45
2022-10-02T18:12:57.929Z,75.76
2022-10-02T18:16:09.519Z,75.60
2022-10-02T18:19:36.703Z,75.36
2022-10-02T18:22:52.340Z,77.03
2022-10-02T18:26:33.415Z,76.99
2022-10-02T18:29:55.485Z,76.02
2022-10-02T18:33:10.440Z,75.57
2022-10-02T18:36:29.124Z,75.98
2022-10-02T18:40:07.371Z,75.74
2022-10-02T18:43:28.901Z,75.57
2022-10-02T18:47:08.074Z,76.00
2022-10-02T18:50:39.713Z,75.30
2022-10-02T18:53:56.961Z,75.74
2022-10-02T18:57:25.202Z,75.70
2022-10-02T19:00:59.647Z,75.86
2022-10-02T19:04:45.631Z,74.97
2022-10-02T19:08:10.604Z,75.45
2022-10-02T19:11:18.605Z,74.70
2022-10-02T19:14:34.405Z,75.20
2022-10-02T19:17:37.206Z,75.35
2022-10-02T19:20:40.343Z,75.62
2022-10-02T19:24:02.672Z,75.98
2022-10-02T19:27:13.695Z,75.38
2022-10-02T19:30:26.326Z,75.45
2022-10-02T19:33:49.897Z,75.59
2022-10-02T19:36:57.233Z,75.00
2022-10-02T19:40:03.984Z,75.05
2022-10-02T19:43:08.665Z,74.90
2022-10-02T19:46:12.662Z,74.44
2022-10-02T19:49:22.770Z,74.32
2022-10-02T19:52:35.936Z,74.29
2022-10-02T19:55:42.573Z,74.41
2022-10-02T19:58:58.702Z,74.15
2022-10-02T20:02:13.201Z,74.45
2022-10-02T20:05:22.044Z,74.40
2022-10-02T20:08:36.893Z,75.18
2022-10-02T20:11:46.586Z,74.93
2022-10-02T20:15:14.725Z,75.07
2022-10-02T20:18:17.713Z,75.08
2022-10-02T20:21:48.746Z,74.60
2022-10-02T20:25:14.833Z,75.69
2022-10-02T20:28:29.705Z,75.20
2022-10-02T20:31:56.757Z,75.17
2022-10-02T20:35:08.874Z,76.18
2022-10-02T20:38:21.311Z,76.30
2022-10-02T20:41:29.798Z,77.30
2022-10-02T20:44:36.660Z,78.64
2022-10-02T20:47:57.580Z,79.77
2022-10-02T20:51:09.214Z,80.21
2022-10-02T20:54:36.024Z,79.84
2022-10-02T20:58:29.622Z,81.05
2022-10-02T21:02:04.669Z,80.97
2022-10-02T21:05:35.472Z,82.59
2022-10-02T21:09:03.190Z,83.05
2022-10-02T21:12:27.630Z,83.68
2022-10-02T21:15:55.414Z,83.20
2022-10-02T21:19:22.343Z,82.41
2022-10-02T21:22:43.380Z,82.47
2022-10-02T21:26:09.798Z,83.79
2022-10-02T21:29:32.199Z,83.86
2022-10-02T21:32:34.848Z,83.24
2022-10-02T21:35:51.766Z,84.08
2022-10-02T21:39:36.496Z,85.72
2022-10-02T21:43:17.799Z,85.51
2022-10-02T21:46:54.825Z,86.71
2022-10-02T21:50:40.741Z,84.78
2022-10-02T21:54:27.745Z,86.62
2022-10-02T21:58:08.752Z,87.46
2022-10-02T22:02:07.323Z,86.38
2022-10-02T22:05:31.741Z,86.19
2022-10-02T22:08:40.519Z,85.49
2022-10-02T22:12:07.583Z,87.49
2022-10-02T22:15:16.272Z,87.81
2022-10-02T22:18:45.361Z,87.49
2022-10-02T22:22:03.503Z,87.78
2022-10-02T22:25:09.240Z,86.96
2022-10-02T22:28:35.369Z,86.13
2022-10-02T22:32:19.247Z,86.45
2022-10-02T22:35:49.661Z,86.59
2022-10-02T22:39:20.605Z,85.58
2022-10-02T22:42:37.753Z,86.96
2022-10-02T22:45:50.720Z,87.83
2022-10-02T22:49:10.552Z,87.80
2022-10-02T22:52:24.345Z,87.72
2022-10-02T22:55:32.203Z,87.23
2022-10-02T22:58:42.083Z,87.92
2022-10-02T23:01:57.089Z,87.58
2022-10-02T23:05:24.561Z,86.97
2022-10-02T23:08:30.368Z,86.91
2022-10-02T23:11:42.986Z,86.88
2022-10-02T23:15:05.644Z,87.40
2022-10-02T23:18:32.057Z,87.41
2022-10-02T23:22:01.183Z,87.91
2022-10-02T23:25:29.819Z,88.57
2022-10-02T23:28:35.684Z,89.29
2022-10-02T23:32:04.901Z,88.58
2022-10-02T23:35:30.368Z,87.74
2022-10-02T23:39:00.881Z,88.38
2022-10-02T23:42:09.574Z,87.97
2022-10-02T23:45:26.205Z,89.02
2022-10-02T23:48:30.308Z,86.75
2022-10-02T23:52:06.505Z,85.58
2022-10-02T23:55:30.901Z,87.73
2022-10-02T23:58:56.908Z,87.06
